Time;durP1;ratioP1;P1;durP2;ratioP2;P2;SDS_P1;SDS_P2;PMS_P1;PMS_P2;Temp;Humidity;BMP_temperature;BMP_pressure;BME280_temperature;BME280_humidity;BME280_pressure;Samples;Min_cycle;Max_cycle;Signal;HPM_P1;HPM_P2
2023/01/22 00:01:01;;;;;;;42.03;17.65;;;-0.80;99.90;;;;;;5008819;28;20439;-68
2023/01/22 00:03:27;;;;;;;33.33;15.73;;;-0.80;99.90;;;;;;5008953;28;20076;-68
2023/01/22 00:05:54;;;;;;;43.17;15.38;;;-0.90;99.90;;;;;;5001642;28;20049;-68
2023/01/22 00:08:21;;;;;;;30.35;14.98;;;-1.00;99.90;;;;;;4999234;28;20046;-67
2023/01/22 00:10:52;;;;;;;35.20;15.90;;;-1.00;99.90;;;;;;4996287;28;20054;-68
2023/01/22 00:13:22;;;;;;;32.50;15.55;;;-0.90;99.90;;;;;;5008376;28;20058;-69
2023/01/22 00:15:48;;;;;;;38.33;16.52;;;-0.90;99.90;;;;;;4996643;28;20506;-69
2023/01/22 00:18:16;;;;;;;41.53;18.00;;;-1.00;99.90;;;;;;5006952;28;20049;-68
2023/01/22 00:20:49;;;;;;;31.35;16.38;;;-1.00;99.90;;;;;;4999152;28;20592;-68
2023/01/22 00:23:16;;;;;;;42.90;17.23;;;-1.00;99.90;;;;;;5006578;28;20552;-67
2023/01/22 00:25:43;;;;;;;36.45;18.05;;;-1.00;99.90;;;;;;5000290;28;20497;-69
2023/01/22 00:28:10;;;;;;;39.17;17.58;;;-1.10;99.90;;;;;;5003232;28;20046;-68
2023/01/22 00:30:37;;;;;;;48.42;19.75;;;-1.10;99.90;;;;;;5002513;28;20522;-68
2023/01/22 00:33:04;;;;;;;39.28;19.77;;;-1.10;99.90;;;;;;5001913;28;20045;-68
2023/01/22 00:35:32;;;;;;;41.70;16.85;;;-1.10;99.90;;;;;;5003137;28;20488;-67
2023/01/22 00:37:59;;;;;;;37.28;17.48;;;-1.20;99.90;;;;;;4998769;28;20060;-67
2023/01/22 00:40:26;;;;;;;40.53;17.70;;;-1.10;99.90;;;;;;5006626;28;20456;-68
2023/01/22 00:42:52;;;;;;;41.30;19.35;;;-1.20;99.90;;;;;;5008432;28;20050;-68
2023/01/22 00:45:19;;;;;;;41.65;18.20;;;-1.20;99.90;;;;;;5006479;28;20041;-69
2023/01/22 00:47:46;;;;;;;43.50;18.88;;;-1.20;99.90;;;;;;4997310;28;20416;-68
2023/01/22 00:50:12;;;;;;;42.20;17.92;;;-1.20;99.90;;;;;;5007696;28;20747;-68
2023/01/22 00:52:39;;;;;;;40.95;19.48;;;-1.20;99.90;;;;;;4996574;28;20038;-68
2023/01/22 00:55:06;;;;;;;40.83;18.83;;;-1.20;99.90;;;;;;5008588;28;20142;-68
2023/01/22 00:57:33;;;;;;;43.15;19.88;;;-1.20;99.90;;;;;;5010495;28;20137;-68
2023/01/22 01:00:00;;;;;;;38.67;14.43;;;-1.20;99.90;;;;;;5007132;28;20136;-68
2023/01/22 01:02:27;;;;;;;37.08;15.95;;;-1.20;99.90;;;;;;4995636;28;20319;-70
2023/01/22 01:04:55;;;;;;;37.65;16.45;;;-1.20;99.90;;;;;;5007903;28;20056;-67
2023/01/22 01:07:22;;;;;;;36.28;17.23;;;-1.20;99.90;;;;;;5003058;28;20501;-67
2023/01/22 01:09:49;;;;;;;39.67;16.60;;;-1.20;99.90;;;;;;5006033;28;20100;-68
2023/01/22 01:12:16;;;;;;;35.70;15.48;;;-1.20;99.90;;;;;;4999846;28;20046;-68
2023/01/22 01:14:43;;;;;;;43.22;16.63;;;-1.20;99.90;;;;;;5003924;28;20050;-69
2023/01/22 01:17:09;;;;;;;32.53;14.70;;;-1.30;99.90;;;;;;5003442;28;20572;-68
2023/01/22 01:19:36;;;;;;;37.33;15.88;;;-1.30;99.90;;;;;;4993928;28;20046;-68
2023/01/22 01:22:04;;;;;;;33.47;16.20;;;-1.30;99.90;;;;;;5006957;28;20046;-69
2023/01/22 01:24:31;;;;;;;33.20;14.60;;;-1.30;99.90;;;;;;5000551;28;20052;-68
2023/01/22 01:26:58;;;;;;;28.20;11.32;;;-1.30;99.90;;;;;;5011745;28;20050;-68
2023/01/22 01:29:25;;;;;;;24.10;9.93;;;-1.40;99.90;;;;;;5011788;28;20577;-68
2023/01/22 01:31:53;;;;;;;25.02;10.63;;;-1.40;99.90;;;;;;5009785;28;20136;-67
2023/01/22 01:34:20;;;;;;;20.88;9.00;;;-1.30;99.90;;;;;;4999933;28;20128;-67
2023/01/22 01:36:47;;;;;;;27.98;10.48;;;-1.30;99.90;;;;;;5007994;28;20458;-68
2023/01/22 01:39:15;;;;;;;18.73;9.70;;;-1.30;99.90;;;;;;5000572;28;20416;-67
2023/01/22 01:41:42;;;;;;;30.13;10.23;;;-1.30;99.90;;;;;;5011934;28;20116;-68
2023/01/22 01:44:14;;;;;;;23.88;10.13;;;-1.20;99.90;;;;;;5008405;28;20077;-67
2023/01/22 01:46:53;;;;;;;20.58;9.52;;;-1.30;99.90;;;;;;4992405;28;20116;-69
2023/01/22 01:49:36;;;;;;;23.65;10.05;;;-1.30;99.90;;;;;;4997580;28;20050;-68
2023/01/22 01:52:09;;;;;;;25.55;10.65;;;-1.40;99.90;;;;;;5013840;28;20046;-67
2023/01/22 01:54:36;;;;;;;29.63;13.13;;;-1.40;99.90;;;;;;5010507;28;20080;-70
2023/01/22 01:57:15;;;;;;;31.75;13.02;;;-1.40;99.90;;;;;;5013680;28;20050;-67
2023/01/22 01:59:42;;;;;;;30.42;14.13;;;-1.40;99.90;;;;;;5000245;28;20054;-67
2023/01/22 02:02:09;;;;;;;27.27;14.32;;;-1.40;99.90;;;;;;5014114;28;20065;-67
2023/01/22 02:04:36;;;;;;;32.88;16.27;;;-1.50;99.90;;;;;;4989858;28;20085;-67
2023/01/22 02:07:03;;;;;;;38.65;17.08;;;-1.60;99.90;;;;;;4990972;28;20058;-67
2023/01/22 02:09:30;;;;;;;32.63;16.77;;;-1.60;99.90;;;;;;4978547;28;20065;-67
2023/01/22 02:11:57;;;;;;;33.78;16.35;;;-1.50;99.90;;;;;;5010089;28;20046;-66
2023/01/22 02:14:26;;;;;;;36.63;17.08;;;-1.60;99.90;;;;;;5005726;28;20081;-67
2023/01/22 02:17:13;;;;;;;31.48;16.98;;;-1.60;99.90;;;;;;4993835;28;20569;-67
2023/01/22 02:19:40;;;;;;;39.67;18.35;;;-1.60;99.90;;;;;;4996093;28;20050;-67
2023/01/22 02:22:14;;;;;;;41.08;16.75;;;-1.60;99.90;;;;;;5007932;28;20057;-67
2023/01/22 02:24:41;;;;;;;34.75;17.77;;;-1.60;99.90;;;;;;5002515;28;20046;-67
2023/01/22 02:27:08;;;;;;;40.83;18.67;;;-1.60;99.90;;;;;;5008142;28;20053;-67
2023/01/22 02:29:34;;;;;;;42.90;17.48;;;-1.70;99.90;;;;;;5006358;28;20300;-67
2023/01/22 02:32:01;;;;;;;42.17;19.23;;;-1.70;99.90;;;;;;4999893;28;20050;-66
2023/01/22 02:34:28;;;;;;;34.13;17.05;;;-1.70;99.90;;;;;;5008072;28;20042;-67
2023/01/22 02:36:55;;;;;;;47.55;19.73;;;-1.70;99.90;;;;;;5011887;28;20059;-69
2023/01/22 02:39:21;;;;;;;48.50;19.23;;;-1.70;99.90;;;;;;5008887;28;20070;-67
2023/01/22 02:41:48;;;;;;;37.30;17.05;;;-1.70;99.90;;;;;;5015208;28;20058;-67
2023/01/22 02:44:15;;;;;;;38.42;20.02;;;-1.70;99.90;;;;;;5009539;28;20430;-67
2023/01/22 02:46:42;;;;;;;43.67;19.05;;;-1.70;99.90;;;;;;5025765;28;20140;-67
2023/01/22 02:49:08;;;;;;;37.45;17.58;;;-1.70;99.90;;;;;;5010367;28;20473;-67
2023/01/22 02:51:35;;;;;;;37.67;18.98;;;-1.70;99.90;;;;;;5003877;28;20065;-68
2023/01/22 02:54:02;;;;;;;36.45;17.90;;;-1.70;99.90;;;;;;5005336;28;20045;-67
2023/01/22 02:56:29;;;;;;;34.03;18.02;;;-1.70;99.90;;;;;;5004123;28;20596;-67
2023/01/22 02:58:56;;;;;;;42.38;18.95;;;-1.80;99.90;;;;;;4990763;28;20437;-67
2023/01/22 03:01:23;;;;;;;46.75;20.02;;;-1.80;99.90;;;;;;4994308;28;20050;-68
2023/01/22 03:03:50;;;;;;;41.72;17.83;;;-1.80;99.90;;;;;;5010083;28;20073;-68
2023/01/22 03:06:23;;;;;;;37.83;17.88;;;-1.80;99.90;;;;;;5005808;28;20137;-68
2023/01/22 03:08:52;;;;;;;42.67;16.98;;;-1.80;99.90;;;;;;4991968;28;20065;-69
2023/01/22 03:11:19;;;;;;;32.65;18.08;;;-1.80;99.90;;;;;;4994501;28;20137;-69
2023/01/22 03:22:03;;;;;;;44.08;20.50;;;-1.90;99.90;;;;;;4994131;28;20085;-68
2023/01/22 03:24:30;;;;;;;43.70;18.33;;;-1.90;99.90;;;;;;5009202;28;20076;-67
2023/01/22 03:26:56;;;;;;;39.55;18.27;;;-1.90;99.90;;;;;;5005270;28;20142;-68
2023/01/22 03:29:23;;;;;;;42.90;17.58;;;-1.90;99.90;;;;;;4991528;28;20069;-68
2023/01/22 03:31:50;;;;;;;39.60;17.30;;;-1.40;99.90;;;;;;4994265;28;20066;-67
2023/01/22 03:34:18;;;;;;;37.72;18.50;;;-2.00;99.90;;;;;;5005037;28;20053;-67
2023/01/22 03:36:45;;;;;;;45.63;19.50;;;-2.00;99.90;;;;;;5004888;28;20046;-67
2023/01/22 03:39:12;;;;;;;41.95;17.67;;;-2.00;99.90;;;;;;4997070;28;20057;-67
2023/01/22 03:41:38;;;;;;;45.17;18.15;;;-2.00;99.90;;;;;;4995313;28;20060;-68
2023/01/22 03:44:08;;;;;;;37.67;18.63;;;-2.00;99.90;;;;;;5009607;28;20072;-68
2023/01/22 03:46:34;;;;;;;39.30;17.67;;;-2.00;99.90;;;;;;5005505;28;20502;-68
2023/01/22 03:49:01;;;;;;;42.83;18.90;;;-1.90;99.90;;;;;;4999704;28;20477;-68
2023/01/22 03:51:28;;;;;;;31.88;15.77;;;-2.00;99.90;;;;;;4990799;28;20050;-68
2023/01/22 03:53:56;;;;;;;37.75;16.80;;;-2.00;99.90;;;;;;5005234;28;20390;-69
2023/01/22 03:56:23;;;;;;;35.45;17.02;;;-2.00;99.90;;;;;;5008467;28;20065;-69
2023/01/22 03:58:50;;;;;;;44.03;18.75;;;-2.10;99.90;;;;;;4997271;28;20757;-68
2023/01/22 04:01:22;;;;;;;34.75;16.88;;;-1.70;99.90;;;;;;5007968;28;20475;-69
2023/01/22 04:03:49;;;;;;;38.70;17.63;;;-2.10;99.90;;;;;;5002274;28;20050;-69
2023/01/22 04:06:16;;;;;;;39.95;18.45;;;-2.10;99.90;;;;;;5008673;28;20439;-68
2023/01/22 04:08:44;;;;;;;46.20;18.00;;;-2.10;99.90;;;;;;5004290;28;20054;-69
2023/01/22 04:11:11;;;;;;;39.47;18.48;;;-2.00;99.90;;;;;;4990427;28;20050;-68
2023/01/22 04:13:39;;;;;;;35.60;16.15;;;-2.00;99.90;;;;;;5003829;28;20073;-68
2023/01/22 04:16:06;;;;;;;38.17;16.15;;;-2.10;99.90;;;;;;5007562;28;20045;-69
2023/01/22 04:18:33;;;;;;;41.88;17.80;;;-2.10;99.90;;;;;;4995825;28;20138;-68
2023/01/22 04:21:00;;;;;;;41.88;18.90;;;-2.10;99.90;;;;;;4989267;28;20046;-69
2023/01/22 04:23:26;;;;;;;40.88;17.33;;;-2.10;99.90;;;;;;4993091;28;20050;-68
2023/01/22 04:25:53;;;;;;;42.30;17.98;;;-2.10;99.90;;;;;;5002845;28;20129;-68
2023/01/22 04:28:20;;;;;;;32.75;15.52;;;-2.20;99.90;;;;;;5002829;28;20572;-68
2023/01/22 04:30:48;;;;;;;35.50;15.70;;;-2.20;99.90;;;;;;5000297;28;20069;-68
2023/01/22 04:33:15;;;;;;;35.45;15.43;;;-2.20;99.90;;;;;;5006864;28;20073;-68
2023/01/22 04:35:41;;;;;;;38.55;14.27;;;-2.20;99.90;;;;;;5008496;28;20050;-69
2023/01/22 04:38:10;;;;;;;32.53;15.65;;;-2.20;99.90;;;;;;5004523;28;20046;-68
2023/01/22 04:40:37;;;;;;;31.17;13.98;;;-2.20;99.90;;;;;;4987818;28;20394;-68
2023/01/22 04:43:05;;;;;;;41.22;17.52;;;-2.30;99.90;;;;;;4988948;28;20046;-68
2023/01/22 04:45:31;;;;;;;36.67;16.17;;;-2.30;99.90;;;;;;5003939;28;20129;-69
2023/01/22 04:47:58;;;;;;;36.20;16.00;;;-2.40;99.90;;;;;;5008226;28;20045;-68
2023/01/22 04:50:27;;;;;;;35.03;16.40;;;-2.40;99.90;;;;;;5023152;28;20061;-68
2023/01/22 04:52:54;;;;;;;41.35;17.02;;;-2.30;99.90;;;;;;5008750;28;20050;-68
2023/01/22 04:55:21;;;;;;;34.13;14.70;;;-2.40;99.90;;;;;;5008747;28;20088;-68
2023/01/22 04:57:48;;;;;;;32.22;14.27;;;-2.30;99.90;;;;;;5007323;28;20050;-68
2023/01/22 05:00:15;;;;;;;33.13;14.93;;;-2.30;99.90;;;;;;5023824;28;20054;-69
2023/01/22 05:02:42;;;;;;;38.45;17.00;;;-2.30;99.90;;;;;;5008001;28;20501;-68
2023/01/22 05:05:09;;;;;;;30.50;14.00;;;-2.30;99.90;;;;;;5004000;28;20096;-69
2023/01/22 05:07:36;;;;;;;36.92;15.73;;;-2.30;99.90;;;;;;5005627;28;20397;-68
2023/01/22 05:10:02;;;;;;;25.70;12.30;;;-2.30;99.90;;;;;;5007591;28;20053;-68
2023/01/22 05:12:29;;;;;;;34.30;14.93;;;-2.30;99.90;;;;;;5009286;28;20501;-68
2023/01/22 05:14:56;;;;;;;39.22;15.48;;;-2.30;99.90;;;;;;5003854;28;20133;-68
2023/01/22 05:17:23;;;;;;;28.45;13.30;;;-2.30;99.90;;;;;;5000493;28;20137;-68
2023/01/22 05:19:50;;;;;;;33.38;14.35;;;-2.00;99.90;;;;;;5003846;28;20056;-68
2023/01/22 05:22:16;;;;;;;25.52;12.68;;;-2.40;99.90;;;;;;5007926;28;20050;-67
2023/01/22 05:24:43;;;;;;;37.60;13.45;;;-2.40;99.90;;;;;;5004868;28;20046;-66
2023/01/22 05:27:10;;;;;;;30.60;13.48;;;-2.50;99.90;;;;;;5014498;28;20588;-67
2023/01/22 05:29:36;;;;;;;36.47;14.20;;;-2.60;99.90;;;;;;4988672;28;20058;-68
2023/01/22 05:32:03;;;;;;;25.92;13.65;;;-2.30;99.90;;;;;;4996968;28;20592;-68
2023/01/22 05:34:30;;;;;;;32.38;14.45;;;-2.30;99.90;;;;;;5008009;28;20042;-64
2023/01/22 05:36:57;;;;;;;29.10;13.43;;;-2.50;99.90;;;;;;4995485;28;20572;-67
2023/01/22 05:39:23;;;;;;;32.40;14.40;;;-2.50;99.90;;;;;;5008038;28;20512;-68
2023/01/22 05:41:50;;;;;;;27.85;13.77;;;-2.50;99.90;;;;;;5007097;28;20046;-68
2023/01/22 05:44:17;;;;;;;22.65;12.80;;;-2.40;99.90;;;;;;5011040;28;20412;-68
2023/01/22 05:46:44;;;;;;;28.00;14.43;;;-2.40;99.90;;;;;;5006150;28;20140;-68
2023/01/22 05:49:11;;;;;;;35.92;14.63;;;-2.40;99.90;;;;;;4992338;28;20057;-69
2023/01/22 05:51:37;;;;;;;32.58;14.05;;;-2.40;99.90;;;;;;5002393;28;20445;-68
2023/01/22 05:54:04;;;;;;;29.40;13.52;;;-2.50;99.90;;;;;;5009780;28;20052;-68
2023/01/22 05:56:31;;;;;;;34.03;15.50;;;-2.30;99.90;;;;;;5003247;28;20054;-68
2023/01/22 05:58:58;;;;;;;30.80;13.27;;;-2.50;99.90;;;;;;4994236;28;20485;-68
2023/01/22 06:01:24;;;;;;;27.25;14.02;;;-2.60;99.90;;;;;;4991994;28;20048;-68
2023/01/22 06:03:52;;;;;;;29.50;12.85;;;-2.60;99.90;;;;;;5000545;28;20056;-68
2023/01/22 06:06:18;;;;;;;30.08;14.48;;;-2.50;99.90;;;;;;5003634;28;20077;-67
2023/01/22 06:08:46;;;;;;;27.40;13.48;;;-2.40;99.90;;;;;;4998325;28;20137;-66
2023/01/22 06:11:14;;;;;;;28.05;13.82;;;-2.60;99.90;;;;;;4991481;28;20058;-66
2023/01/22 06:13:41;;;;;;;39.88;14.05;;;-2.60;99.90;;;;;;4998943;28;20049;-68
2023/01/22 06:16:08;;;;;;;30.60;13.82;;;-2.60;99.90;;;;;;5010469;28;20060;-67
2023/01/22 06:18:35;;;;;;;28.05;12.48;;;-2.60;99.90;;;;;;5001174;28;20053;-66
2023/01/22 06:21:03;;;;;;;33.45;14.23;;;-2.60;99.90;;;;;;4997371;28;20522;-68
2023/01/22 06:23:30;;;;;;;30.73;12.85;;;-2.60;99.90;;;;;;5003628;28;20052;-65
2023/01/22 06:25:58;;;;;;;25.85;13.00;;;-2.60;99.90;;;;;;4991800;28;20129;-66
2023/01/22 06:28:24;;;;;;;32.05;12.93;;;-2.60;99.90;;;;;;4992740;28;20058;-67
2023/01/22 06:30:52;;;;;;;30.15;12.63;;;-2.50;99.90;;;;;;4993909;28;20117;-67
2023/01/22 06:33:19;;;;;;;25.88;11.63;;;-2.50;99.90;;;;;;5005442;28;20065;-67
2023/01/22 06:35:45;;;;;;;25.85;11.75;;;-2.60;99.90;;;;;;4995839;28;20050;-66
2023/01/22 06:38:12;;;;;;;30.08;12.75;;;-2.60;99.90;;;;;;4998397;28;20054;-66
2023/01/22 06:40:39;;;;;;;30.13;13.10;;;-2.60;99.90;;;;;;5009534;28;20046;-66
2023/01/22 06:43:07;;;;;;;29.85;12.20;;;-2.60;99.90;;;;;;5006138;28;20049;-66
2023/01/22 06:45:37;;;;;;;27.75;12.40;;;-2.60;99.90;;;;;;4996461;28;20046;-67
2023/01/22 06:48:04;;;;;;;27.70;11.52;;;-2.60;99.90;;;;;;4993302;28;20129;-66
2023/01/22 06:50:30;;;;;;;25.25;11.35;;;-2.60;99.90;;;;;;5002868;28;20382;-66
2023/01/22 06:52:59;;;;;;;26.92;10.48;;;-2.60;99.90;;;;;;5005973;28;20046;-66
2023/01/22 06:55:26;;;;;;;29.92;13.50;;;-2.60;99.90;;;;;;5009483;28;20124;-66
2023/01/22 06:57:56;;;;;;;19.77;11.07;;;-2.60;99.90;;;;;;5010050;28;20042;-67
2023/01/22 07:00:23;;;;;;;24.75;11.38;;;-2.60;99.90;;;;;;5009149;28;20090;-68
2023/01/22 07:02:50;;;;;;;28.92;11.70;;;-2.60;99.90;;;;;;5008578;28;20050;-68
2023/01/22 07:05:18;;;;;;;28.30;11.02;;;-2.60;99.90;;;;;;5001458;28;20433;-67
2023/01/22 07:07:45;;;;;;;20.55;10.23;;;-2.40;99.90;;;;;;4991107;28;20056;-66
2023/01/22 07:10:12;;;;;;;29.35;12.63;;;-2.70;99.90;;;;;;5004742;28;20054;-67
2023/01/22 07:12:39;;;;;;;29.40;12.73;;;-2.70;99.90;;;;;;4990493;28;20137;-68
2023/01/22 07:15:07;;;;;;;25.55;12.00;;;-2.80;99.90;;;;;;4995859;28;20457;-67
2023/01/22 07:17:33;;;;;;;24.42;11.57;;;-2.70;99.90;;;;;;5009724;28;20525;-68
2023/01/22 07:20:00;;;;;;;24.42;11.98;;;-2.70;99.90;;;;;;5020698;28;20046;-67
2023/01/22 07:22:27;;;;;;;30.50;11.77;;;-2.50;99.90;;;;;;5008123;28;20100;-68
2023/01/22 07:24:53;;;;;;;27.08;13.02;;;-2.70;99.90;;;;;;5005397;28;20137;-68
2023/01/22 07:27:20;;;;;;;22.02;11.05;;;-2.50;99.90;;;;;;4992449;28;20066;-68
2023/01/22 07:29:48;;;;;;;27.15;11.40;;;-2.70;99.90;;;;;;4993301;28;20502;-67
2023/01/22 07:32:15;;;;;;;30.58;11.52;;;-2.60;99.90;;;;;;5004420;28;20050;-67
2023/01/22 07:34:42;;;;;;;31.65;13.15;;;-2.60;99.90;;;;;;5003630;28;20054;-67
2023/01/22 07:37:09;;;;;;;26.33;12.25;;;-2.70;99.90;;;;;;5002367;28;20056;-67
2023/01/22 07:39:36;;;;;;;25.73;13.45;;;-2.60;99.90;;;;;;5005751;28;20046;-68
2023/01/22 07:42:02;;;;;;;22.48;11.63;;;-2.70;99.90;;;;;;4652012;28;10000598;-67
2023/01/22 07:44:29;;;;;;;30.23;11.63;;;-2.70;99.90;;;;;;5004904;28;20136;-69
2023/01/22 07:46:56;;;;;;;29.92;12.95;;;-2.70;99.90;;;;;;4995657;28;20439;-68
2023/01/22 07:49:22;;;;;;;22.35;10.68;;;-2.80;99.90;;;;;;5019547;28;20042;-66
2023/01/22 07:51:49;;;;;;;19.75;10.30;;;-2.70;99.90;;;;;;5003262;28;20058;-67
2023/01/22 07:54:16;;;;;;;25.20;11.52;;;-2.80;99.90;;;;;;5005883;28;20148;-67
2023/01/22 07:56:44;;;;;;;31.30;11.77;;;-2.80;99.90;;;;;;5005595;28;20112;-67
2023/01/22 07:59:10;;;;;;;23.27;12.52;;;-2.80;99.90;;;;;;5007656;28;20273;-66
2023/01/22 08:01:37;;;;;;;23.73;13.13;;;-2.00;99.90;;;;;;5006570;28;20558;-67
2023/01/22 08:04:04;;;;;;;27.95;12.18;;;-2.90;99.90;;;;;;5008421;28;20096;-68
2023/01/22 08:06:31;;;;;;;24.92;12.25;;;-2.80;99.90;;;;;;5007176;28;21153;-67
2023/01/22 08:08:58;;;;;;;28.35;12.18;;;-2.80;99.90;;;;;;5008622;28;20038;-67
2023/01/22 08:11:26;;;;;;;23.52;11.68;;;-2.70;99.90;;;;;;5007362;28;20042;-68
2023/01/22 08:13:53;;;;;;;27.42;13.00;;;-2.70;99.90;;;;;;5006704;28;20056;-67
2023/01/22 08:16:20;;;;;;;47.70;18.83;;;-2.70;99.90;;;;;;5006091;28;20046;-67
2023/01/22 08:18:47;;;;;;;27.13;12.32;;;-2.70;99.90;;;;;;5007544;28;20057;-67
2023/01/22 08:21:14;;;;;;;25.77;11.95;;;-2.80;99.90;;;;;;5007199;28;20038;-68
2023/01/22 08:23:40;;;;;;;28.27;12.70;;;-2.80;99.90;;;;;;5007970;28;20050;-68
2023/01/22 08:26:11;;;;;;;29.25;12.75;;;-2.80;99.90;;;;;;5007257;28;20046;-67
2023/01/22 08:28:38;;;;;;;28.65;13.85;;;-2.80;99.90;;;;;;5006687;28;20064;-68
2023/01/22 08:31:07;;;;;;;30.10;13.93;;;-2.80;99.90;;;;;;5001056;28;20042;-68
2023/01/22 08:33:56;;;;;;;26.87;11.80;;;-2.90;99.90;;;;;;5009874;28;20054;-67
2023/01/22 08:36:23;;;;;;;28.50;13.75;;;-2.90;99.90;;;;;;5002367;28;20545;-68
2023/01/22 08:38:52;;;;;;;27.58;13.45;;;-2.70;99.90;;;;;;4995889;28;20050;-67
2023/01/22 08:41:19;;;;;;;26.10;12.30;;;-2.70;99.90;;;;;;5001228;28;20042;-69
2023/01/22 08:43:46;;;;;;;26.60;11.40;;;-2.60;99.90;;;;;;5011650;28;20521;-69
2023/01/22 08:46:13;;;;;;;28.08;13.43;;;-2.60;99.90;;;;;;4986768;28;20058;-68
2023/01/22 08:48:45;;;;;;;32.00;15.60;;;-2.50;99.90;;;;;;5004072;28;20110;-71
2023/01/22 08:51:14;;;;;;;30.00;12.20;;;-2.50;99.90;;;;;;5004635;28;20045;-68
2023/01/22 08:53:41;;;;;;;28.98;14.15;;;-2.40;99.90;;;;;;5000102;28;20065;-69
2023/01/22 08:56:07;;;;;;;30.17;13.48;;;-2.40;99.90;;;;;;4999328;28;21258;-68
2023/01/22 08:58:34;;;;;;;32.30;12.73;;;-2.30;99.90;;;;;;5011079;28;20042;-67
2023/01/22 09:01:01;;;;;;;27.48;13.00;;;-2.30;99.90;;;;;;4985543;28;20089;-67
2023/01/22 09:03:31;;;;;;;34.22;14.32;;;-2.20;99.90;;;;;;4989346;28;20121;-68
2023/01/22 09:05:58;;;;;;;28.15;12.20;;;-2.20;99.90;;;;;;5005410;28;20489;-68
2023/01/22 09:08:25;;;;;;;34.92;14.75;;;-2.10;99.90;;;;;;5001001;28;20054;-69
2023/01/22 09:10:55;;;;;;;29.60;14.23;;;-2.00;99.90;;;;;;4987173;28;20061;-67
2023/01/22 09:13:22;;;;;;;31.80;14.82;;;-2.10;99.90;;;;;;5001024;28;20057;-69
2023/01/22 09:15:48;;;;;;;35.42;14.55;;;-1.90;99.90;;;;;;5004860;28;20143;-67
2023/01/22 09:18:18;;;;;;;40.92;15.85;;;-1.90;99.90;;;;;;5003507;28;20042;-69
2023/01/22 09:20:45;;;;;;;37.40;14.48;;;-1.80;99.90;;;;;;4999852;28;20038;-69
2023/01/22 09:23:12;;;;;;;34.95;15.90;;;-1.80;99.90;;;;;;4989755;28;20069;-69
2023/01/22 09:25:44;;;;;;;32.65;14.18;;;-1.70;99.90;;;;;;4993142;28;20058;-67
2023/01/22 09:28:11;;;;;;;30.25;15.02;;;-1.60;99.90;;;;;;4989801;28;20413;-70
2023/01/22 09:30:41;;;;;;;32.55;14.95;;;-1.60;99.90;;;;;;4996683;28;20054;-69
2023/01/22 09:33:08;;;;;;;25.60;12.63;;;-1.50;99.90;;;;;;5001098;28;20047;-69
2023/01/22 09:35:35;;;;;;;29.58;12.55;;;-1.50;99.90;;;;;;5004344;28;20465;-69
2023/01/22 09:38:04;;;;;;;30.20;13.45;;;-1.40;99.90;;;;;;4987037;28;20513;-69
2023/01/22 09:40:40;;;;;;;37.72;14.73;;;-1.30;99.90;;;;;;5003642;28;20052;-68
2023/01/22 09:43:35;;;;;;;36.25;15.00;;;-1.30;99.90;;;;;;4981899;28;20054;-69
2023/01/22 09:46:04;;;;;;;35.17;16.10;;;-1.30;99.90;;;;;;4997540;28;20050;-70
2023/01/22 09:48:35;;;;;;;39.13;15.40;;;-1.30;99.90;;;;;;5005823;28;20058;-69
2023/01/22 09:51:02;;;;;;;39.40;18.63;;;-1.30;99.90;;;;;;5001758;28;20060;-70
2023/01/22 09:53:29;;;;;;;42.58;17.02;;;-1.20;99.90;;;;;;5004868;28;20054;-69
2023/01/22 09:55:56;;;;;;;39.40;17.17;;;-1.20;99.90;;;;;;4998462;28;20049;-69
2023/01/22 09:58:23;;;;;;;30.88;16.73;;;-1.00;99.90;;;;;;5008245;28;20108;-69
2023/01/22 10:00:56;;;;;;;31.80;15.48;;;-0.90;99.90;;;;;;4998403;28;20042;-69
2023/01/22 10:03:33;;;;;;;33.90;15.13;;;-0.90;99.90;;;;;;5008265;28;20056;-69
2023/01/22 10:06:06;;;;;;;37.70;17.35;;;-0.80;99.90;;;;;;4998936;28;20069;-70
2023/01/22 10:08:37;;;;;;;35.72;17.20;;;-0.80;99.90;;;;;;5005943;28;20140;-70
2023/01/22 10:11:03;;;;;;;36.30;15.65;;;-0.70;99.90;;;;;;4995405;28;20510;-70
2023/01/22 10:13:35;;;;;;;34.65;15.82;;;-0.60;99.90;;;;;;5008248;28;20077;-70
2023/01/22 10:16:02;;;;;;;33.60;15.73;;;-0.60;99.90;;;;;;5001784;28;20045;-70
2023/01/22 10:18:32;;;;;;;42.55;19.38;;;-0.50;99.90;;;;;;5008011;28;20050;-70
2023/01/22 10:21:01;;;;;;;37.28;18.27;;;-0.50;99.90;;;;;;5005790;28;20099;-70
2023/01/22 10:23:30;;;;;;;44.92;19.15;;;-0.40;99.90;;;;;;5003066;28;20046;-70
2023/01/22 10:26:11;;;;;;;36.50;17.83;;;-0.30;99.90;;;;;;5013480;28;20052;-70
2023/01/22 10:29:04;;;;;;;46.58;18.70;;;-0.20;99.90;;;;;;4987004;28;20070;-69
2023/01/22 10:31:33;;;;;;;40.20;18.73;;;-0.20;99.90;;;;;;5001466;28;20050;-69
2023/01/22 10:34:09;;;;;;;45.78;21.67;;;-0.10;99.90;;;;;;4993700;28;20045;-70
2023/01/22 10:36:36;;;;;;;40.83;20.85;;;0.00;99.90;;;;;;5003811;28;20129;-70
2023/01/22 10:39:10;;;;;;;49.88;20.83;;;0.00;99.90;;;;;;5005144;28;20084;-68
2023/01/22 10:41:38;;;;;;;48.05;21.83;;;0.10;99.90;;;;;;5005632;28;20489;-68
2023/01/22 10:44:22;;;;;;;44.42;19.08;;;0.10;99.90;;;;;;5006010;28;20049;-70
2023/01/22 10:46:49;;;;;;;39.22;21.25;;;0.30;99.90;;;;;;5003313;28;20045;-68
2023/01/22 10:49:24;;;;;;;42.38;21.52;;;0.30;99.90;;;;;;5007577;28;20179;-68
2023/01/22 10:51:58;;;;;;;43.67;21.17;;;0.30;99.90;;;;;;5003039;28;20050;-68
2023/01/22 10:54:35;;;;;;;41.58;20.90;;;0.40;99.90;;;;;;5007165;28;20743;-68
2023/01/22 10:57:23;;;;;;;40.72;21.27;;;0.50;99.90;;;;;;5002826;28;20127;-69
2023/01/22 11:00:26;;;;;;;46.28;22.17;;;0.60;99.90;;;;;;5002224;28;20068;-69
2023/01/22 11:02:53;;;;;;;39.25;20.00;;;0.60;99.90;;;;;;5003071;28;20146;-68
2023/01/22 11:05:22;;;;;;;55.05;22.50;;;0.70;99.90;;;;;;5003264;28;20052;-69
2023/01/22 11:07:54;;;;;;;45.85;22.00;;;0.80;99.90;;;;;;5000827;28;20050;-69
2023/01/22 11:10:41;;;;;;;43.50;20.80;;;0.90;99.90;;;;;;4971068;28;20050;-69
2023/01/22 11:13:18;;;;;;;47.33;22.30;;;1.00;99.90;;;;;;5003247;28;20118;-68
2023/01/22 11:15:52;;;;;;;48.35;22.85;;;1.10;99.90;;;;;;5003629;28;20506;-69
2023/01/22 11:18:24;;;;;;;;;;;1.20;99.90;;;;;;5002010;28;20054;-67
2023/01/22 11:20:53;;;;;;;51.30;22.13;;;1.30;99.90;;;;;;4997798;28;20060;-68
2023/01/22 11:23:35;;;;;;;51.97;23.98;;;1.40;99.90;;;;;;5004221;28;20475;-68
2023/01/22 11:26:05;;;;;;;46.85;23.95;;;1.50;99.90;;;;;;5009528;28;20073;-68
2023/01/22 11:28:52;;;;;;;46.05;23.35;;;1.70;99.90;;;;;;5005220;28;20483;-67
2023/01/22 11:31:42;;;;;;;44.13;23.35;;;1.70;99.90;;;;;;4976674;28;20060;-68
2023/01/22 11:34:27;;;;;;;49.00;24.17;;;1.80;99.90;;;;;;5006991;28;20050;-68
2023/01/22 11:36:59;;;;;;;42.47;20.67;;;1.90;99.90;;;;;;5005847;28;20543;-68
2023/01/22 11:39:48;;;;;;;39.60;21.45;;;2.00;99.90;;;;;;4984731;28;20049;-68
2023/01/22 11:42:46;;;;;;;39.15;20.98;;;2.10;99.90;;;;;;5004494;28;20058;-67
2023/01/22 11:45:51;;;;;;;46.05;21.50;;;2.20;99.90;;;;;;4997853;28;20145;-69
2023/01/22 11:48:56;;;;;;;41.92;20.73;;;2.20;99.90;;;;;;5003109;28;20072;-68
2023/01/22 11:51:29;;;;;;;37.38;17.02;;;2.30;99.90;;;;;;5015531;28;20072;-69
2023/01/22 11:54:14;;;;;;;41.13;18.63;;;2.40;99.90;;;;;;5016678;28;20041;-69
2023/01/22 11:56:59;;;;;;;35.25;17.75;;;2.50;99.90;;;;;;5016079;28;20140;-70
2023/01/22 11:59:44;;;;;;;35.60;19.60;;;2.60;99.90;;;;;;5010744;28;20411;-67
2023/01/22 12:02:48;;;;;;;35.53;15.95;;;2.70;99.90;;;;;;5004572;28;20142;-68
2023/01/22 12:05:37;;;;;;;33.65;15.63;;;2.80;99.90;;;;;;5006480;28;20073;-68
2023/01/22 12:08:13;;;;;;;31.98;16.77;;;2.80;99.90;;;;;;5004867;28;20058;-67
2023/01/22 12:11:06;;;;;;;33.45;16.85;;;2.90;99.90;;;;;;5003711;28;20084;-67
2023/01/22 12:14:27;;;;;;;40.10;18.45;;;2.90;99.90;;;;;;5003069;28;20045;-66
2023/01/22 12:17:13;;;;;;;30.02;16.67;;;2.90;99.90;;;;;;4997031;28;20141;-68
2023/01/22 12:19:52;;;;;;;34.75;17.80;;;3.10;99.90;;;;;;4998716;28;20046;-67
2023/01/22 12:22:40;;;;;;;35.38;17.00;;;3.10;99.90;;;;;;5006423;28;20053;-68
2023/01/22 12:25:21;;;;;;;32.50;15.63;;;3.20;99.90;;;;;;5003301;28;20046;-67
2023/01/22 12:27:55;;;;;;;27.77;16.15;;;3.30;99.90;;;;;;5006679;28;20053;-67
2023/01/22 12:30:24;;;;;;;;;;;3.30;99.90;;;;;;5003530;28;20057;-67
2023/01/22 12:32:57;;;;;;;31.98;16.88;;;3.30;99.90;;;;;;5004292;28;19922;-67
2023/01/22 12:35:25;;;;;;;44.60;17.48;;;3.40;99.90;;;;;;5000560;28;20064;-68
2023/01/22 12:37:55;;;;;;;36.53;14.88;;;3.50;99.90;;;;;;5006567;28;20152;-67
2023/01/22 12:40:40;;;;;;;25.50;13.38;;;3.50;99.90;;;;;;5003520;28;20072;-68
2023/01/22 12:43:07;;;;;;;22.83;11.02;;;3.60;99.90;;;;;;5020621;28;20042;-67
2023/01/22 12:45:52;;;;;;;24.52;11.68;;;3.60;99.90;;;;;;5004238;28;20092;-69
2023/01/22 12:48:29;;;;;;;29.38;13.38;;;3.60;99.90;;;;;;5004980;28;20046;-68
2023/01/22 12:50:56;;;;;;;21.52;11.30;;;3.70;99.90;;;;;;4985421;28;20056;-67